sensor_id;sensor_type;location;lat;lon;timestamp;P1;durP1;ratioP1;P2;durP2;ratioP2
21927;SDS011;11128;51.096;17.190;2023-02-28T00:00:14;38.35;;;17.60;;
21927;SDS011;11128;51.096;17.190;2023-02-28T00:05:17;43.15;;;17.83;;
21927;SDS011;11128;51.096;17.190;2023-02-28T00:10:22;34.40;;;15.15;;
21927;SDS011;11128;51.096;17.190;2023-02-28T00:15:28;33.42;;;14.95;;
21927;SDS011;11128;51.096;17.190;2023-02-28T00:20:30;40.92;;;16.48;;
21927;SDS011;11128;51.096;17.190;2023-02-28T00:25:31;31.02;;;14.32;;
21927;SDS011;11128;51.096;17.190;2023-02-28T00:30:32;26.88;;;12.23;;
21927;SDS011;11128;51.096;17.190;2023-02-28T00:35:34;32.63;;;12.48;;
21927;SDS011;11128;51.096;17.190;2023-02-28T00:40:35;29.48;;;12.55;;
21927;SDS011;11128;51.096;17.190;2023-02-28T00:45:36;31.88;;;13.43;;
21927;SDS011;11128;51.096;17.190;2023-02-28T00:50:38;28.98;;;11.73;;
21927;SDS011;11128;51.096;17.190;2023-02-28T00:55:39;28.67;;;12.05;;
21927;SDS011;11128;51.096;17.190;2023-02-28T01:00:40;30.25;;;11.68;;
21927;SDS011;11128;51.096;17.190;2023-02-28T01:05:41;28.67;;;12.45;;
21927;SDS011;11128;51.096;17.190;2023-02-28T01:10:42;33.72;;;14.75;;
21927;SDS011;11128;51.096;17.190;2023-02-28T01:15:50;36.25;;;14.38;;
21927;SDS011;11128;51.096;17.190;2023-02-28T01:20:53;32.70;;;13.88;;
21927;SDS011;11128;51.096;17.190;2023-02-28T01:25:55;32.33;;;14.50;;
21927;SDS011;11128;51.096;17.190;2023-02-28T01:30:56;35.75;;;15.80;;
21927;SDS011;11128;51.096;17.190;2023-02-28T01:36:01;40.00;;;15.88;;
21927;SDS011;11128;51.096;17.190;2023-02-28T01:41:04;40.75;;;17.70;;
21927;SDS011;11128;51.096;17.190;2023-02-28T01:46:06;49.40;;;18.58;;
21927;SDS011;11128;51.096;17.190;2023-02-28T01:51:50;44.22;;;17.77;;
21927;SDS011;11128;51.096;17.190;2023-02-28T01:56:41;42.70;;;17.73;;
21927;SDS011;11128;51.096;17.190;2023-02-28T02:01:46;40.38;;;16.38;;
21927;SDS011;11128;51.096;17.190;2023-02-28T02:06:47;38.65;;;16.85;;
21927;SDS011;11128;51.096;17.190;2023-02-28T02:11:49;43.88;;;16.63;;
21927;SDS011;11128;51.096;17.190;2023-02-28T02:38:14;48.63;;;18.27;;
21927;SDS011;11128;51.096;17.190;2023-02-28T02:43:30;49.17;;;19.98;;
21927;SDS011;11128;51.096;17.190;2023-02-28T02:48:47;43.67;;;17.40;;
21927;SDS011;11128;51.096;17.190;2023-02-28T02:53:55;48.13;;;18.17;;
21927;SDS011;11128;51.096;17.190;2023-02-28T02:59:02;52.77;;;22.17;;
21927;SDS011;11128;51.096;17.190;2023-02-28T03:04:08;48.95;;;19.92;;
21927;SDS011;11128;51.096;17.190;2023-02-28T03:09:12;40.90;;;18.35;;
21927;SDS011;11128;51.096;17.190;2023-02-28T03:24:52;46.60;;;19.17;;
21927;SDS011;11128;51.096;17.190;2023-02-28T03:30:35;46.97;;;18.45;;
21927;SDS011;11128;51.096;17.190;2023-02-28T03:35:49;42.75;;;18.25;;
21927;SDS011;11128;51.096;17.190;2023-02-28T03:40:58;37.85;;;17.33;;
21927;SDS011;11128;51.096;17.190;2023-02-28T03:46:10;30.45;;;15.30;;
21927;SDS011;11128;51.096;17.190;2023-02-28T03:51:16;36.40;;;16.75;;
21927;SDS011;11128;51.096;17.190;2023-02-28T03:56:22;39.40;;;15.68;;
21927;SDS011;11128;51.096;17.190;2023-02-28T04:01:42;36.55;;;15.52;;
21927;SDS011;11128;51.096;17.190;2023-02-28T04:06:49;37.83;;;16.13;;
21927;SDS011;11128;51.096;17.190;2023-02-28T04:11:52;31.63;;;15.60;;
21927;SDS011;11128;51.096;17.190;2023-02-28T04:16:56;33.92;;;14.45;;
21927;SDS011;11128;51.096;17.190;2023-02-28T04:21:57;38.08;;;15.35;;
21927;SDS011;11128;51.096;17.190;2023-02-28T04:26:58;39.08;;;15.73;;
21927;SDS011;11128;51.096;17.190;2023-02-28T04:32:00;36.53;;;15.10;;
21927;SDS011;11128;51.096;17.190;2023-02-28T04:37:03;34.50;;;14.70;;
21927;SDS011;11128;51.096;17.190;2023-02-28T04:42:04;35.15;;;15.65;;
21927;SDS011;11128;51.096;17.190;2023-02-28T04:47:06;41.38;;;19.10;;
21927;SDS011;11128;51.096;17.190;2023-02-28T04:52:07;45.42;;;20.77;;
21927;SDS011;11128;51.096;17.190;2023-02-28T04:57:08;42.28;;;20.98;;
21927;SDS011;11128;51.096;17.190;2023-02-28T05:02:10;32.53;;;14.82;;
21927;SDS011;11128;51.096;17.190;2023-02-28T05:07:12;35.17;;;17.13;;
21927;SDS011;11128;51.096;17.190;2023-02-28T05:12:13;39.55;;;19.20;;
21927;SDS011;11128;51.096;17.190;2023-02-28T05:17:14;41.40;;;18.95;;
21927;SDS011;11128;51.096;17.190;2023-02-28T05:22:16;44.25;;;20.60;;
21927;SDS011;11128;51.096;17.190;2023-02-28T05:27:17;52.25;;;21.65;;
21927;SDS011;11128;51.096;17.190;2023-02-28T05:32:18;45.97;;;20.85;;
21927;SDS011;11128;51.096;17.190;2023-02-28T05:37:20;45.97;;;20.35;;
21927;SDS011;11128;51.096;17.190;2023-02-28T05:42:21;38.83;;;19.95;;
21927;SDS011;11128;51.096;17.190;2023-02-28T05:47:22;44.08;;;18.95;;
21927;SDS011;11128;51.096;17.190;2023-02-28T05:52:24;40.80;;;18.05;;
21927;SDS011;11128;51.096;17.190;2023-02-28T05:57:25;40.35;;;16.70;;
21927;SDS011;11128;51.096;17.190;2023-02-28T06:02:27;39.75;;;16.20;;
21927;SDS011;11128;51.096;17.190;2023-02-28T06:07:29;42.53;;;18.50;;
21927;SDS011;11128;51.096;17.190;2023-02-28T06:12:33;37.80;;;17.65;;
21927;SDS011;11128;51.096;17.190;2023-02-28T06:17:34;38.50;;;17.15;;
21927;SDS011;11128;51.096;17.190;2023-02-28T06:22:36;40.53;;;17.85;;
21927;SDS011;11128;51.096;17.190;2023-02-28T06:27:37;35.45;;;15.32;;
21927;SDS011;11128;51.096;17.190;2023-02-28T06:32:41;29.60;;;13.93;;
21927;SDS011;11128;51.096;17.190;2023-02-28T06:37:43;26.23;;;13.27;;
21927;SDS011;11128;51.096;17.190;2023-02-28T06:42:45;32.15;;;13.77;;
21927;SDS011;11128;51.096;17.190;2023-02-28T06:47:46;31.85;;;14.80;;
21927;SDS011;11128;51.096;17.190;2023-02-28T06:52:52;54.47;;;21.23;;
21927;SDS011;11128;51.096;17.190;2023-02-28T06:57:55;53.50;;;21.90;;
21927;SDS011;11128;51.096;17.190;2023-02-28T07:02:57;30.42;;;13.05;;
21927;SDS011;11128;51.096;17.190;2023-02-28T07:07:58;22.50;;;10.93;;
21927;SDS011;11128;51.096;17.190;2023-02-28T07:13:00;30.48;;;13.35;;
21927;SDS011;11128;51.096;17.190;2023-02-28T07:18:01;25.38;;;12.38;;
21927;SDS011;11128;51.096;17.190;2023-02-28T07:23:04;21.08;;;10.85;;
21927;SDS011;11128;51.096;17.190;2023-02-28T07:28:05;20.58;;;11.13;;
21927;SDS011;11128;51.096;17.190;2023-02-28T07:33:06;21.10;;;10.43;;
21927;SDS011;11128;51.096;17.190;2023-02-28T07:38:08;18.98;;;10.13;;
21927;SDS011;11128;51.096;17.190;2023-02-28T07:43:10;20.23;;;10.35;;
21927;SDS011;11128;51.096;17.190;2023-02-28T07:48:11;22.95;;;10.77;;
21927;SDS011;11128;51.096;17.190;2023-02-28T07:53:13;21.85;;;11.45;;
21927;SDS011;11128;51.096;17.190;2023-02-28T07:58:14;16.48;;;9.32;;
21927;SDS011;11128;51.096;17.190;2023-02-28T08:03:17;19.27;;;9.25;;
21927;SDS011;11128;51.096;17.190;2023-02-28T08:08:19;16.33;;;9.15;;
21927;SDS011;11128;51.096;17.190;2023-02-28T08:13:21;15.18;;;8.50;;
21927;SDS011;11128;51.096;17.190;2023-02-28T08:18:22;15.18;;;7.55;;
21927;SDS011;11128;51.096;17.190;2023-02-28T08:23:24;10.98;;;6.75;;
21927;SDS011;11128;51.096;17.190;2023-02-28T08:28:25;13.65;;;6.60;;
21927;SDS011;11128;51.096;17.190;2023-02-28T08:33:27;8.90;;;5.93;;
21927;SDS011;11128;51.096;17.190;2023-02-28T08:38:28;10.55;;;6.32;;
21927;SDS011;11128;51.096;17.190;2023-02-28T08:43:29;13.50;;;6.70;;
21927;SDS011;11128;51.096;17.190;2023-02-28T08:48:32;11.75;;;6.60;;
21927;SDS011;11128;51.096;17.190;2023-02-28T08:53:35;13.80;;;6.50;;
21927;SDS011;11128;51.096;17.190;2023-02-28T08:58:38;10.73;;;6.07;;
21927;SDS011;11128;51.096;17.190;2023-02-28T09:03:40;12.90;;;6.43;;
21927;SDS011;11128;51.096;17.190;2023-02-28T09:08:42;12.20;;;6.85;;
21927;SDS011;11128;51.096;17.190;2023-02-28T09:13:44;12.07;;;6.75;;
21927;SDS011;11128;51.096;17.190;2023-02-28T09:18:46;11.27;;;5.30;;
21927;SDS011;11128;51.096;17.190;2023-02-28T09:23:48;10.85;;;5.40;;
21927;SDS011;11128;51.096;17.190;2023-02-28T09:28:51;10.40;;;5.20;;
21927;SDS011;11128;51.096;17.190;2023-02-28T09:33:55;6.95;;;4.75;;
21927;SDS011;11128;51.096;17.190;2023-02-28T09:38:57;9.68;;;5.35;;
21927;SDS011;11128;51.096;17.190;2023-02-28T09:43:59;9.20;;;5.32;;
21927;SDS011;11128;51.096;17.190;2023-02-28T09:49:07;7.95;;;5.22;;
21927;SDS011;11128;51.096;17.190;2023-02-28T09:54:16;11.18;;;5.30;;
21927;SDS011;11128;51.096;17.190;2023-02-28T10:04:52;8.30;;;4.45;;
21927;SDS011;11128;51.096;17.190;2023-02-28T10:09:58;8.53;;;5.20;;
21927;SDS011;11128;51.096;17.190;2023-02-28T10:15:05;10.52;;;5.28;;
21927;SDS011;11128;51.096;17.190;2023-02-28T10:20:15;8.20;;;4.72;;
21927;SDS011;11128;51.096;17.190;2023-02-28T10:25:26;9.85;;;5.35;;
21927;SDS011;11128;51.096;17.190;2023-02-28T10:30:30;9.55;;;5.32;;
21927;SDS011;11128;51.096;17.190;2023-02-28T10:35:31;10.57;;;5.43;;
21927;SDS011;11128;51.096;17.190;2023-02-28T10:40:35;8.95;;;5.63;;
21927;SDS011;11128;51.096;17.190;2023-02-28T10:45:36;7.75;;;4.95;;
21927;SDS011;11128;51.096;17.190;2023-02-28T11:01:11;8.57;;;5.38;;
21927;SDS011;11128;51.096;17.190;2023-02-28T11:06:22;8.63;;;5.13;;
21927;SDS011;11128;51.096;17.190;2023-02-28T11:11:30;11.63;;;5.40;;
21927;SDS011;11128;51.096;17.190;2023-02-28T11:16:45;8.18;;;5.45;;
21927;SDS011;11128;51.096;17.190;2023-02-28T11:21:48;7.57;;;4.57;;
21927;SDS011;11128;51.096;17.190;2023-02-28T11:26:58;8.18;;;5.18;;
21927;SDS011;11128;51.096;17.190;2023-02-28T11:37:09;7.70;;;5.05;;
21927;SDS011;11128;51.096;17.190;2023-02-28T11:47:25;10.98;;;5.40;;
21927;SDS011;11128;51.096;17.190;2023-02-28T12:35:24;15.43;;;8.57;;
21927;SDS011;11128;51.096;17.190;2023-02-28T12:41:22;14.05;;;8.32;;
21927;SDS011;11128;51.096;17.190;2023-02-28T12:46:13;15.63;;;8.48;;
21927;SDS011;11128;51.096;17.190;2023-02-28T12:51:23;13.15;;;7.63;;
21927;SDS011;11128;51.096;17.190;2023-02-28T13:01:42;18.65;;;8.80;;
21927;SDS011;11128;51.096;17.190;2023-02-28T13:12:48;18.45;;;9.88;;
21927;SDS011;11128;51.096;17.190;2023-02-28T13:17:51;17.15;;;9.55;;
21927;SDS011;11128;51.096;17.190;2023-02-28T13:22:54;18.27;;;9.23;;
21927;SDS011;11128;51.096;17.190;2023-02-28T13:27:58;16.48;;;9.05;;
21927;SDS011;11128;51.096;17.190;2023-02-28T13:33:17;21.65;;;10.30;;
21927;SDS011;11128;51.096;17.190;2023-02-28T13:38:32;22.67;;;11.57;;
21927;SDS011;11128;51.096;17.190;2023-02-28T14:05:01;18.75;;;10.52;;
21927;SDS011;11128;51.096;17.190;2023-02-28T14:10:06;26.50;;;14.50;;
21927;SDS011;11128;51.096;17.190;2023-02-28T14:20:29;19.57;;;11.63;;
21927;SDS011;11128;51.096;17.190;2023-02-28T14:25:37;19.83;;;11.10;;
21927;SDS011;11128;51.096;17.190;2023-02-28T14:31:06;18.55;;;10.70;;
21927;SDS011;11128;51.096;17.190;2023-02-28T14:36:20;20.88;;;10.38;;
21927;SDS011;11128;51.096;17.190;2023-02-28T14:41:29;17.70;;;10.18;;
21927;SDS011;11128;51.096;17.190;2023-02-28T14:46:36;16.02;;;9.77;;
21927;SDS011;11128;51.096;17.190;2023-02-28T14:51:39;13.13;;;8.07;;
21927;SDS011;11128;51.096;17.190;2023-02-28T14:56:41;20.23;;;11.52;;
21927;SDS011;11128;51.096;17.190;2023-02-28T15:01:42;17.30;;;9.70;;
21927;SDS011;11128;51.096;17.190;2023-02-28T15:06:43;19.15;;;9.35;;
21927;SDS011;11128;51.096;17.190;2023-02-28T15:11:46;18.92;;;10.15;;
21927;SDS011;11128;51.096;17.190;2023-02-28T15:17:00;22.83;;;12.75;;
21927;SDS011;11128;51.096;17.190;2023-02-28T15:22:13;17.00;;;9.30;;
21927;SDS011;11128;51.096;17.190;2023-02-28T15:27:20;23.55;;;10.15;;
21927;SDS011;11128;51.096;17.190;2023-02-28T15:32:28;21.10;;;11.52;;
21927;SDS011;11128;51.096;17.190;2023-02-28T15:37:45;17.38;;;9.35;;
21927;SDS011;11128;51.096;17.190;2023-02-28T15:42:58;20.83;;;10.30;;
21927;SDS011;11128;51.096;17.190;2023-02-28T15:48:05;16.05;;;8.73;;
21927;SDS011;11128;51.096;17.190;2023-02-28T15:53:17;32.13;;;14.83;;
21927;SDS011;11128;51.096;17.190;2023-02-28T15:58:22;23.50;;;12.27;;
21927;SDS011;11128;51.096;17.190;2023-02-28T16:03:32;25.45;;;11.68;;
21927;SDS011;11128;51.096;17.190;2023-02-28T16:08:39;22.20;;;10.68;;
21927;SDS011;11128;51.096;17.190;2023-02-28T16:13:41;66.85;;;28.80;;
21927;SDS011;11128;51.096;17.190;2023-02-28T16:18:43;29.17;;;13.00;;
21927;SDS011;11128;51.096;17.190;2023-02-28T16:23:44;32.92;;;14.18;;
21927;SDS011;11128;51.096;17.190;2023-02-28T16:28:46;22.33;;;12.00;;
21927;SDS011;11128;51.096;17.190;2023-02-28T16:33:47;22.05;;;11.80;;
21927;SDS011;11128;51.096;17.190;2023-02-28T16:38:49;25.15;;;13.23;;
21927;SDS011;11128;51.096;17.190;2023-02-28T16:43:51;25.25;;;12.13;;
21927;SDS011;11128;51.096;17.190;2023-02-28T16:48:55;21.17;;;11.77;;
21927;SDS011;11128;51.096;17.190;2023-02-28T16:53:57;25.30;;;13.75;;
21927;SDS011;11128;51.096;17.190;2023-02-28T16:59:00;40.25;;;17.85;;
21927;SDS011;11128;51.096;17.190;2023-02-28T17:04:02;45.80;;;18.48;;
21927;SDS011;11128;51.096;17.190;2023-02-28T17:09:03;44.35;;;19.25;;
21927;SDS011;11128;51.096;17.190;2023-02-28T17:14:05;94.30;;;33.75;;
21927;SDS011;11128;51.096;17.190;2023-02-28T17:19:06;378.10;;;114.28;;
21927;SDS011;11128;51.096;17.190;2023-02-28T17:24:12;280.92;;;89.65;;
21927;SDS011;11128;51.096;17.190;2023-02-28T17:29:17;210.20;;;72.15;;
21927;SDS011;11128;51.096;17.190;2023-02-28T17:34:20;184.43;;;63.10;;
21927;SDS011;11128;51.096;17.190;2023-02-28T17:39:22;117.72;;;45.78;;
21927;SDS011;11128;51.096;17.190;2023-02-28T17:44:27;81.93;;;32.28;;
21927;SDS011;11128;51.096;17.190;2023-02-28T17:49:28;58.08;;;25.80;;
21927;SDS011;11128;51.096;17.190;2023-02-28T17:54:30;60.53;;;26.55;;
21927;SDS011;11128;51.096;17.190;2023-02-28T17:59:32;62.65;;;26.42;;
21927;SDS011;11128;51.096;17.190;2023-02-28T18:04:36;79.10;;;32.38;;
21927;SDS011;11128;51.096;17.190;2023-02-28T18:09:37;64.47;;;26.90;;
21927;SDS011;11128;51.096;17.190;2023-02-28T18:14:39;46.15;;;19.90;;
21927;SDS011;11128;51.096;17.190;2023-02-28T18:19:40;42.08;;;18.50;;
21927;SDS011;11128;51.096;17.190;2023-02-28T18:24:42;40.17;;;19.13;;
21927;SDS011;11128;51.096;17.190;2023-02-28T18:29:43;39.53;;;18.60;;
21927;SDS011;11128;51.096;17.190;2023-02-28T18:34:44;47.83;;;19.27;;
21927;SDS011;11128;51.096;17.190;2023-02-28T18:39:46;47.63;;;20.17;;
21927;SDS011;11128;51.096;17.190;2023-02-28T18:44:47;62.00;;;23.10;;
21927;SDS011;11128;51.096;17.190;2023-02-28T18:49:48;53.25;;;20.20;;
21927;SDS011;11128;51.096;17.190;2023-02-28T18:54:50;51.33;;;19.42;;
21927;SDS011;11128;51.096;17.190;2023-02-28T18:59:51;44.80;;;18.48;;
21927;SDS011;11128;51.096;17.190;2023-02-28T19:04:53;45.55;;;18.63;;
21927;SDS011;11128;51.096;17.190;2023-02-28T19:09:54;53.53;;;20.77;;
21927;SDS011;11128;51.096;17.190;2023-02-28T19:14:55;56.05;;;23.92;;
21927;SDS011;11128;51.096;17.190;2023-02-28T19:19:57;56.33;;;22.98;;
21927;SDS011;11128;51.096;17.190;2023-02-28T19:24:58;59.60;;;25.08;;
21927;SDS011;11128;51.096;17.190;2023-02-28T19:29:59;54.78;;;23.45;;
21927;SDS011;11128;51.096;17.190;2023-02-28T19:35:01;57.65;;;24.38;;
21927;SDS011;11128;51.096;17.190;2023-02-28T19:40:03;49.03;;;22.88;;
21927;SDS011;11128;51.096;17.190;2023-02-28T19:45:05;54.85;;;23.50;;
21927;SDS011;11128;51.096;17.190;2023-02-28T19:50:09;68.75;;;28.75;;
21927;SDS011;11128;51.096;17.190;2023-02-28T19:55:11;73.55;;;30.50;;
21927;SDS011;11128;51.096;17.190;2023-02-28T20:00:13;74.45;;;29.33;;
21927;SDS011;11128;51.096;17.190;2023-02-28T20:05:15;63.08;;;27.50;;
21927;SDS011;11128;51.096;17.190;2023-02-28T20:10:16;61.30;;;26.35;;
21927;SDS011;11128;51.096;17.190;2023-02-28T20:15:18;58.38;;;25.00;;
21927;SDS011;11128;51.096;17.190;2023-02-28T20:20:20;57.67;;;23.67;;
21927;SDS011;11128;51.096;17.190;2023-02-28T20:25:21;51.38;;;23.20;;
21927;SDS011;11128;51.096;17.190;2023-02-28T20:30:22;56.17;;;26.23;;
21927;SDS011;11128;51.096;17.190;2023-02-28T20:35:24;62.67;;;25.50;;
21927;SDS011;11128;51.096;17.190;2023-02-28T20:40:25;61.28;;;24.90;;
21927;SDS011;11128;51.096;17.190;2023-02-28T20:45:27;71.82;;;32.25;;
21927;SDS011;11128;51.096;17.190;2023-02-28T20:50:28;107.00;;;39.60;;
21927;SDS011;11128;51.096;17.190;2023-02-28T20:55:30;109.80;;;41.17;;
21927;SDS011;11128;51.096;17.190;2023-02-28T21:00:31;102.38;;;39.30;;
21927;SDS011;11128;51.096;17.190;2023-02-28T21:05:33;99.63;;;38.47;;
21927;SDS011;11128;51.096;17.190;2023-02-28T21:10:34;99.80;;;38.83;;
21927;SDS011;11128;51.096;17.190;2023-02-28T21:15:36;95.85;;;39.08;;
21927;SDS011;11128;51.096;17.190;2023-02-28T21:20:38;97.40;;;37.28;;
21927;SDS011;11128;51.096;17.190;2023-02-28T21:25:39;86.85;;;32.63;;
21927;SDS011;11128;51.096;17.190;2023-02-28T21:30:40;90.22;;;32.22;;
21927;SDS011;11128;51.096;17.190;2023-02-28T21:35:42;79.28;;;30.80;;
21927;SDS011;11128;51.096;17.190;2023-02-28T21:40:43;67.88;;;28.27;;
21927;SDS011;11128;51.096;17.190;2023-02-28T21:45:44;59.22;;;27.40;;
21927;SDS011;11128;51.096;17.190;2023-02-28T21:50:59;81.43;;;30.20;;
21927;SDS011;11128;51.096;17.190;2023-02-28T21:56:24;65.85;;;28.00;;
21927;SDS011;11128;51.096;17.190;2023-02-28T22:01:29;76.68;;;31.80;;
21927;SDS011;11128;51.096;17.190;2023-02-28T22:11:38;102.15;;;38.92;;
21927;SDS011;11128;51.096;17.190;2023-02-28T22:16:40;111.47;;;41.38;;
21927;SDS011;11128;51.096;17.190;2023-02-28T22:21:41;109.85;;;40.25;;
21927;SDS011;11128;51.096;17.190;2023-02-28T22:26:44;121.72;;;43.28;;
21927;SDS011;11128;51.096;17.190;2023-02-28T22:31:45;119.47;;;44.17;;
21927;SDS011;11128;51.096;17.190;2023-02-28T22:36:46;115.82;;;44.05;;
21927;SDS011;11128;51.096;17.190;2023-02-28T22:41:48;113.95;;;44.33;;
21927;SDS011;11128;51.096;17.190;2023-02-28T22:46:52;120.35;;;42.67;;
21927;SDS011;11128;51.096;17.190;2023-02-28T22:51:54;114.68;;;40.50;;
21927;SDS011;11128;51.096;17.190;2023-02-28T22:56:55;99.15;;;38.17;;
21927;SDS011;11128;51.096;17.190;2023-02-28T23:01:56;111.18;;;37.25;;
21927;SDS011;11128;51.096;17.190;2023-02-28T23:06:58;89.70;;;34.33;;
21927;SDS011;11128;51.096;17.190;2023-02-28T23:11:59;88.18;;;32.42;;
21927;SDS011;11128;51.096;17.190;2023-02-28T23:17:01;86.80;;;32.35;;
21927;SDS011;11128;51.096;17.190;2023-02-28T23:22:03;85.07;;;30.58;;
21927;SDS011;11128;51.096;17.190;2023-02-28T23:27:05;84.22;;;31.60;;
21927;SDS011;11128;51.096;17.190;2023-02-28T23:32:06;75.50;;;29.98;;
21927;SDS011;11128;51.096;17.190;2023-02-28T23:37:08;69.70;;;30.20;;
21927;SDS011;11128;51.096;17.190;2023-02-28T23:42:09;68.63;;;26.92;;
21927;SDS011;11128;51.096;17.190;2023-02-28T23:47:10;70.13;;;28.27;;
21927;SDS011;11128;51.096;17.190;2023-02-28T23:52:13;67.10;;;28.23;;
21927;SDS011;11128;51.096;17.190;2023-02-28T23:57:14;71.07;;;28.85;;
